sensor_id;sensor_type;location;lat;lon;timestamp;P1;durP1;ratioP1;P2;durP2;ratioP2
20910;SDS011;10615;42.702;23.314;2022-08-26T00:00:56;19.38;;;6.07;;
20910;SDS011;10615;42.702;23.314;2022-08-26T00:01:57;19.98;;;5.60;;
20910;SDS011;10615;42.702;23.314;2022-08-26T00:02:58;20.13;;;5.30;;
20910;SDS011;10615;42.702;23.314;2022-08-26T00:03:59;20.20;;;5.78;;
20910;SDS011;10615;42.702;23.314;2022-08-26T00:05:00;16.35;;;5.10;;
20910;SDS011;10615;42.702;23.314;2022-08-26T00:06:01;15.13;;;5.60;;
20910;SDS011;10615;42.702;23.314;2022-08-26T00:07:02;18.75;;;5.32;;
20910;SDS011;10615;42.702;23.314;2022-08-26T00:08:03;17.70;;;5.00;;
20910;SDS011;10615;42.702;23.314;2022-08-26T00:09:04;15.60;;;5.10;;
20910;SDS011;10615;42.702;23.314;2022-08-26T00:10:05;22.38;;;5.80;;
20910;SDS011;10615;42.702;23.314;2022-08-26T00:11:06;16.27;;;5.25;;
20910;SDS011;10615;42.702;23.314;2022-08-26T00:12:08;20.27;;;4.93;;
20910;SDS011;10615;42.702;23.314;2022-08-26T00:13:09;17.30;;;5.45;;
20910;SDS011;10615;42.702;23.314;2022-08-26T00:14:11;23.48;;;5.47;;
20910;SDS011;10615;42.702;23.314;2022-08-26T00:15:13;24.00;;;5.40;;
20910;SDS011;10615;42.702;23.314;2022-08-26T00:16:16;13.80;;;4.60;;
20910;SDS011;10615;42.702;23.314;2022-08-26T00:17:17;16.60;;;4.80;;
20910;SDS011;10615;42.702;23.314;2022-08-26T00:18:19;20.33;;;5.53;;
20910;SDS011;10615;42.702;23.314;2022-08-26T00:19:20;19.75;;;5.22;;
20910;SDS011;10615;42.702;23.314;2022-08-26T00:20:23;18.77;;;5.10;;
20910;SDS011;10615;42.702;23.314;2022-08-26T00:21:26;21.58;;;5.38;;
20910;SDS011;10615;42.702;23.314;2022-08-26T00:22:27;21.13;;;5.10;;
20910;SDS011;10615;42.702;23.314;2022-08-26T00:23:28;14.48;;;4.78;;
20910;SDS011;10615;42.702;23.314;2022-08-26T00:24:28;18.88;;;4.90;;
20910;SDS011;10615;42.702;23.314;2022-08-26T00:25:29;16.40;;;4.55;;
20910;SDS011;10615;42.702;23.314;2022-08-26T00:26:30;17.55;;;4.90;;
20910;SDS011;10615;42.702;23.314;2022-08-26T00:27:32;15.10;;;4.65;;
20910;SDS011;10615;42.702;23.314;2022-08-26T00:28:33;20.70;;;4.97;;
20910;SDS011;10615;42.702;23.314;2022-08-26T00:29:34;23.63;;;5.82;;
20910;SDS011;10615;42.702;23.314;2022-08-26T00:30:35;19.23;;;5.38;;
20910;SDS011;10615;42.702;23.314;2022-08-26T00:31:36;18.80;;;5.55;;
20910;SDS011;10615;42.702;23.314;2022-08-26T00:32:37;23.00;;;5.00;;
20910;SDS011;10615;42.702;23.314;2022-08-26T00:33:38;18.58;;;5.00;;
20910;SDS011;10615;42.702;23.314;2022-08-26T00:34:39;17.70;;;5.25;;
20910;SDS011;10615;42.702;23.314;2022-08-26T00:35:40;25.00;;;5.35;;
20910;SDS011;10615;42.702;23.314;2022-08-26T00:36:41;16.73;;;4.25;;
20910;SDS011;10615;42.702;23.314;2022-08-26T00:37:42;20.50;;;4.97;;
20910;SDS011;10615;42.702;23.314;2022-08-26T00:38:43;15.05;;;4.70;;
20910;SDS011;10615;42.702;23.314;2022-08-26T00:39:44;14.98;;;4.75;;
20910;SDS011;10615;42.702;23.314;2022-08-26T00:40:46;17.02;;;4.68;;
20910;SDS011;10615;42.702;23.314;2022-08-26T00:41:49;24.50;;;4.78;;
20910;SDS011;10615;42.702;23.314;2022-08-26T00:42:50;19.23;;;5.00;;
20910;SDS011;10615;42.702;23.314;2022-08-26T00:43:51;19.50;;;4.85;;
20910;SDS011;10615;42.702;23.314;2022-08-26T00:44:52;16.65;;;4.75;;
20910;SDS011;10615;42.702;23.314;2022-08-26T00:45:54;19.48;;;5.22;;
20910;SDS011;10615;42.702;23.314;2022-08-26T00:47:06;15.05;;;4.97;;
20910;SDS011;10615;42.702;23.314;2022-08-26T00:48:14;21.70;;;5.05;;
20910;SDS011;10615;42.702;23.314;2022-08-26T00:49:20;19.67;;;4.80;;
20910;SDS011;10615;42.702;23.314;2022-08-26T00:50:26;20.17;;;5.55;;
20910;SDS011;10615;42.702;23.314;2022-08-26T00:51:32;16.67;;;5.38;;
20910;SDS011;10615;42.702;23.314;2022-08-26T00:52:36;26.83;;;5.10;;
20910;SDS011;10615;42.702;23.314;2022-08-26T00:53:41;17.05;;;4.85;;
20910;SDS011;10615;42.702;23.314;2022-08-26T00:55:10;17.73;;;5.47;;
20910;SDS011;10615;42.702;23.314;2022-08-26T00:56:25;18.08;;;5.05;;
20910;SDS011;10615;42.702;23.314;2022-08-26T00:57:57;19.05;;;4.95;;
20910;SDS011;10615;42.702;23.314;2022-08-26T00:59:01;13.25;;;4.45;;
20910;SDS011;10615;42.702;23.314;2022-08-26T01:00:07;14.63;;;5.20;;
20910;SDS011;10615;42.702;23.314;2022-08-26T01:01:14;25.92;;;5.55;;
20910;SDS011;10615;42.702;23.314;2022-08-26T01:02:16;18.05;;;4.65;;
20910;SDS011;10615;42.702;23.314;2022-08-26T01:03:16;19.42;;;5.22;;
20910;SDS011;10615;42.702;23.314;2022-08-26T01:04:21;19.67;;;4.95;;
20910;SDS011;10615;42.702;23.314;2022-08-26T01:05:23;25.33;;;5.95;;
20910;SDS011;10615;42.702;23.314;2022-08-26T01:06:24;15.52;;;4.55;;
20910;SDS011;10615;42.702;23.314;2022-08-26T01:07:27;18.83;;;5.10;;
20910;SDS011;10615;42.702;23.314;2022-08-26T01:08:29;15.00;;;4.82;;
20910;SDS011;10615;42.702;23.314;2022-08-26T01:09:30;18.15;;;5.15;;
20910;SDS011;10615;42.702;23.314;2022-08-26T01:10:31;19.55;;;5.45;;
20910;SDS011;10615;42.702;23.314;2022-08-26T01:11:32;18.92;;;5.60;;
20910;SDS011;10615;42.702;23.314;2022-08-26T01:12:34;15.98;;;5.15;;
20910;SDS011;10615;42.702;23.314;2022-08-26T01:13:40;17.63;;;5.38;;
20910;SDS011;10615;42.702;23.314;2022-08-26T01:14:41;24.50;;;5.20;;
20910;SDS011;10615;42.702;23.314;2022-08-26T01:15:42;20.30;;;5.50;;
20910;SDS011;10615;42.702;23.314;2022-08-26T01:16:45;17.58;;;5.68;;
20910;SDS011;10615;42.702;23.314;2022-08-26T01:17:47;22.70;;;5.32;;
20910;SDS011;10615;42.702;23.314;2022-08-26T01:18:48;20.13;;;5.05;;
20910;SDS011;10615;42.702;23.314;2022-08-26T01:19:59;18.00;;;5.50;;
20910;SDS011;10615;42.702;23.314;2022-08-26T01:21:27;22.33;;;5.22;;
20910;SDS011;10615;42.702;23.314;2022-08-26T01:23:48;30.02;;;6.30;;
20910;SDS011;10615;42.702;23.314;2022-08-26T01:24:50;25.80;;;5.35;;
20910;SDS011;10615;42.702;23.314;2022-08-26T01:25:53;19.33;;;5.43;;
20910;SDS011;10615;42.702;23.314;2022-08-26T01:26:57;22.35;;;5.30;;
20910;SDS011;10615;42.702;23.314;2022-08-26T01:28:04;18.40;;;5.32;;
20910;SDS011;10615;42.702;23.314;2022-08-26T01:29:08;26.92;;;6.13;;
20910;SDS011;10615;42.702;23.314;2022-08-26T01:30:13;16.63;;;4.78;;
20910;SDS011;10615;42.702;23.314;2022-08-26T01:31:15;20.50;;;5.38;;
20910;SDS011;10615;42.702;23.314;2022-08-26T01:32:21;26.67;;;5.85;;
20910;SDS011;10615;42.702;23.314;2022-08-26T01:33:25;21.30;;;5.60;;
20910;SDS011;10615;42.702;23.314;2022-08-26T01:34:32;17.10;;;5.68;;
20910;SDS011;10615;42.702;23.314;2022-08-26T01:35:36;23.67;;;5.90;;
20910;SDS011;10615;42.702;23.314;2022-08-26T01:36:37;26.38;;;5.65;;
20910;SDS011;10615;42.702;23.314;2022-08-26T01:37:39;22.98;;;5.50;;
20910;SDS011;10615;42.702;23.314;2022-08-26T01:38:40;21.67;;;5.47;;
20910;SDS011;10615;42.702;23.314;2022-08-26T01:39:42;22.45;;;5.65;;
20910;SDS011;10615;42.702;23.314;2022-08-26T01:40:46;27.00;;;6.35;;
20910;SDS011;10615;42.702;23.314;2022-08-26T01:41:47;21.00;;;5.70;;
20910;SDS011;10615;42.702;23.314;2022-08-26T01:43:09;19.48;;;5.75;;
20910;SDS011;10615;42.702;23.314;2022-08-26T01:44:17;19.00;;;4.90;;
20910;SDS011;10615;42.702;23.314;2022-08-26T01:45:22;22.80;;;5.70;;
20910;SDS011;10615;42.702;23.314;2022-08-26T01:46:25;19.45;;;5.75;;
20910;SDS011;10615;42.702;23.314;2022-08-26T01:47:29;20.30;;;5.70;;
20910;SDS011;10615;42.702;23.314;2022-08-26T01:48:33;17.10;;;5.55;;
20910;SDS011;10615;42.702;23.314;2022-08-26T01:49:35;22.27;;;5.93;;
20910;SDS011;10615;42.702;23.314;2022-08-26T01:50:36;22.38;;;6.60;;
20910;SDS011;10615;42.702;23.314;2022-08-26T01:51:38;27.08;;;6.38;;
20910;SDS011;10615;42.702;23.314;2022-08-26T01:52:41;16.85;;;5.47;;
20910;SDS011;10615;42.702;23.314;2022-08-26T01:53:44;24.23;;;6.07;;
20910;SDS011;10615;42.702;23.314;2022-08-26T01:54:45;24.70;;;6.22;;
20910;SDS011;10615;42.702;23.314;2022-08-26T01:55:47;27.88;;;5.55;;
20910;SDS011;10615;42.702;23.314;2022-08-26T01:56:50;21.85;;;5.85;;
20910;SDS011;10615;42.702;23.314;2022-08-26T01:57:53;18.52;;;5.30;;
20910;SDS011;10615;42.702;23.314;2022-08-26T01:58:57;19.17;;;6.28;;
20910;SDS011;10615;42.702;23.314;2022-08-26T02:00:01;23.73;;;5.70;;
20910;SDS011;10615;42.702;23.314;2022-08-26T02:01:04;20.42;;;6.22;;
20910;SDS011;10615;42.702;23.314;2022-08-26T02:02:05;20.15;;;5.47;;
20910;SDS011;10615;42.702;23.314;2022-08-26T02:03:06;23.60;;;5.90;;
20910;SDS011;10615;42.702;23.314;2022-08-26T02:04:17;19.85;;;5.82;;
20910;SDS011;10615;42.702;23.314;2022-08-26T02:05:29;16.90;;;5.93;;
20910;SDS011;10615;42.702;23.314;2022-08-26T02:06:30;24.27;;;6.22;;
20910;SDS011;10615;42.702;23.314;2022-08-26T02:07:31;22.30;;;6.28;;
20910;SDS011;10615;42.702;23.314;2022-08-26T02:08:37;21.80;;;6.18;;
20910;SDS011;10615;42.702;23.314;2022-08-26T02:09:40;26.48;;;6.78;;
20910;SDS011;10615;42.702;23.314;2022-08-26T02:10:42;17.88;;;6.05;;
20910;SDS011;10615;42.702;23.314;2022-08-26T02:11:43;21.25;;;6.35;;
20910;SDS011;10615;42.702;23.314;2022-08-26T02:12:44;22.55;;;6.35;;
20910;SDS011;10615;42.702;23.314;2022-08-26T02:13:46;28.60;;;6.20;;
20910;SDS011;10615;42.702;23.314;2022-08-26T02:14:54;24.17;;;6.05;;
20910;SDS011;10615;42.702;23.314;2022-08-26T02:15:59;25.30;;;6.35;;
20910;SDS011;10615;42.702;23.314;2022-08-26T02:17:02;22.85;;;6.00;;
20910;SDS011;10615;42.702;23.314;2022-08-26T02:18:06;20.42;;;5.85;;
20910;SDS011;10615;42.702;23.314;2022-08-26T02:19:13;19.00;;;5.72;;
20910;SDS011;10615;42.702;23.314;2022-08-26T02:20:17;24.60;;;5.65;;
20910;SDS011;10615;42.702;23.314;2022-08-26T02:21:19;22.70;;;5.80;;
20910;SDS011;10615;42.702;23.314;2022-08-26T02:22:20;25.75;;;5.85;;
20910;SDS011;10615;42.702;23.314;2022-08-26T02:23:22;15.43;;;5.78;;
20910;SDS011;10615;42.702;23.314;2022-08-26T02:24:25;19.15;;;6.20;;
20910;SDS011;10615;42.702;23.314;2022-08-26T02:25:30;26.70;;;5.18;;
20910;SDS011;10615;42.702;23.314;2022-08-26T02:26:45;22.52;;;6.30;;
20910;SDS011;10615;42.702;23.314;2022-08-26T02:27:47;17.15;;;5.68;;
20910;SDS011;10615;42.702;23.314;2022-08-26T02:29:11;19.13;;;5.82;;
20910;SDS011;10615;42.702;23.314;2022-08-26T02:30:19;20.00;;;5.50;;
20910;SDS011;10615;42.702;23.314;2022-08-26T02:31:22;21.92;;;5.57;;
20910;SDS011;10615;42.702;23.314;2022-08-26T02:32:23;20.77;;;5.00;;
20910;SDS011;10615;42.702;23.314;2022-08-26T02:33:24;23.17;;;5.78;;
20910;SDS011;10615;42.702;23.314;2022-08-26T02:34:28;21.98;;;5.20;;
20910;SDS011;10615;42.702;23.314;2022-08-26T02:35:31;22.30;;;5.75;;
20910;SDS011;10615;42.702;23.314;2022-08-26T02:36:32;22.75;;;5.72;;
20910;SDS011;10615;42.702;23.314;2022-08-26T02:37:33;18.08;;;5.10;;
20910;SDS011;10615;42.702;23.314;2022-08-26T02:38:34;19.83;;;4.90;;
20910;SDS011;10615;42.702;23.314;2022-08-26T02:39:36;28.95;;;5.65;;
20910;SDS011;10615;42.702;23.314;2022-08-26T02:40:39;20.33;;;5.40;;
20910;SDS011;10615;42.702;23.314;2022-08-26T02:41:41;19.20;;;5.72;;
20910;SDS011;10615;42.702;23.314;2022-08-26T02:42:42;28.80;;;6.10;;
20910;SDS011;10615;42.702;23.314;2022-08-26T02:43:43;19.08;;;5.10;;
20910;SDS011;10615;42.702;23.314;2022-08-26T02:44:44;22.15;;;5.65;;
20910;SDS011;10615;42.702;23.314;2022-08-26T02:45:45;18.38;;;5.68;;
20910;SDS011;10615;42.702;23.314;2022-08-26T02:46:46;20.60;;;5.55;;
20910;SDS011;10615;42.702;23.314;2022-08-26T02:47:47;22.55;;;5.85;;
20910;SDS011;10615;42.702;23.314;2022-08-26T02:48:48;22.58;;;5.57;;
20910;SDS011;10615;42.702;23.314;2022-08-26T02:49:49;25.13;;;6.05;;
20910;SDS011;10615;42.702;23.314;2022-08-26T02:50:50;18.75;;;5.88;;
20910;SDS011;10615;42.702;23.314;2022-08-26T02:51:51;25.48;;;6.50;;
20910;SDS011;10615;42.702;23.314;2022-08-26T02:52:52;19.30;;;5.72;;
20910;SDS011;10615;42.702;23.314;2022-08-26T02:53:53;17.85;;;5.47;;
20910;SDS011;10615;42.702;23.314;2022-08-26T02:54:53;18.00;;;5.97;;
20910;SDS011;10615;42.702;23.314;2022-08-26T02:55:54;23.63;;;5.97;;
20910;SDS011;10615;42.702;23.314;2022-08-26T02:56:55;25.95;;;5.65;;
20910;SDS011;10615;42.702;23.314;2022-08-26T02:57:56;17.83;;;5.75;;
20910;SDS011;10615;42.702;23.314;2022-08-26T02:58:57;19.88;;;5.43;;
20910;SDS011;10615;42.702;23.314;2022-08-26T02:59:58;24.88;;;5.57;;
20910;SDS011;10615;42.702;23.314;2022-08-26T03:00:59;19.63;;;5.38;;
20910;SDS011;10615;42.702;23.314;2022-08-26T03:02:00;20.23;;;5.70;;
20910;SDS011;10615;42.702;23.314;2022-08-26T03:03:02;20.88;;;5.55;;
20910;SDS011;10615;42.702;23.314;2022-08-26T03:04:04;25.10;;;5.45;;
20910;SDS011;10615;42.702;23.314;2022-08-26T03:05:07;25.48;;;5.32;;
20910;SDS011;10615;42.702;23.314;2022-08-26T03:06:08;18.58;;;5.38;;
20910;SDS011;10615;42.702;23.314;2022-08-26T03:07:09;24.98;;;5.18;;
20910;SDS011;10615;42.702;23.314;2022-08-26T03:08:09;18.90;;;5.03;;
20910;SDS011;10615;42.702;23.314;2022-08-26T03:09:10;26.17;;;6.35;;
20910;SDS011;10615;42.702;23.314;2022-08-26T03:10:11;24.85;;;6.22;;
20910;SDS011;10615;42.702;23.314;2022-08-26T03:11:12;17.48;;;5.38;;
20910;SDS011;10615;42.702;23.314;2022-08-26T03:12:13;25.00;;;6.15;;
20910;SDS011;10615;42.702;23.314;2022-08-26T03:13:14;25.52;;;6.25;;
20910;SDS011;10615;42.702;23.314;2022-08-26T03:14:15;29.67;;;5.82;;
20910;SDS011;10615;42.702;23.314;2022-08-26T03:15:16;26.20;;;5.22;;
20910;SDS011;10615;42.702;23.314;2022-08-26T03:16:17;24.67;;;5.70;;
20910;SDS011;10615;42.702;23.314;2022-08-26T03:17:19;21.50;;;5.50;;
20910;SDS011;10615;42.702;23.314;2022-08-26T03:18:20;24.75;;;6.20;;
20910;SDS011;10615;42.702;23.314;2022-08-26T03:19:22;19.08;;;5.63;;
20910;SDS011;10615;42.702;23.314;2022-08-26T03:20:24;19.48;;;5.45;;
20910;SDS011;10615;42.702;23.314;2022-08-26T03:21:25;25.63;;;5.65;;
20910;SDS011;10615;42.702;23.314;2022-08-26T03:22:26;17.98;;;5.43;;
20910;SDS011;10615;42.702;23.314;2022-08-26T03:23:26;27.60;;;5.70;;
20910;SDS011;10615;42.702;23.314;2022-08-26T03:24:27;24.35;;;5.88;;
20910;SDS011;10615;42.702;23.314;2022-08-26T03:25:28;22.73;;;6.32;;
20910;SDS011;10615;42.702;23.314;2022-08-26T03:26:29;23.45;;;5.63;;
20910;SDS011;10615;42.702;23.314;2022-08-26T03:27:29;19.25;;;5.72;;
20910;SDS011;10615;42.702;23.314;2022-08-26T03:28:30;19.52;;;5.30;;
20910;SDS011;10615;42.702;23.314;2022-08-26T03:29:31;18.63;;;5.68;;
20910;SDS011;10615;42.702;23.314;2022-08-26T03:30:51;18.98;;;5.88;;
20910;SDS011;10615;42.702;23.314;2022-08-26T03:31:52;23.00;;;5.40;;
20910;SDS011;10615;42.702;23.314;2022-08-26T03:32:53;24.95;;;5.50;;
20910;SDS011;10615;42.702;23.314;2022-08-26T03:33:53;20.38;;;5.13;;
20910;SDS011;10615;42.702;23.314;2022-08-26T03:34:54;23.38;;;5.63;;
20910;SDS011;10615;42.702;23.314;2022-08-26T03:35:55;22.42;;;5.50;;
20910;SDS011;10615;42.702;23.314;2022-08-26T03:36:56;18.27;;;5.60;;
20910;SDS011;10615;42.702;23.314;2022-08-26T03:37:57;19.92;;;5.40;;
20910;SDS011;10615;42.702;23.314;2022-08-26T03:38:58;21.67;;;5.47;;
20910;SDS011;10615;42.702;23.314;2022-08-26T03:39:58;24.67;;;6.43;;
20910;SDS011;10615;42.702;23.314;2022-08-26T03:40:59;28.83;;;5.90;;
20910;SDS011;10615;42.702;23.314;2022-08-26T03:42:00;23.20;;;5.22;;
20910;SDS011;10615;42.702;23.314;2022-08-26T03:43:02;22.08;;;6.40;;
20910;SDS011;10615;42.702;23.314;2022-08-26T03:44:04;28.27;;;5.82;;
20910;SDS011;10615;42.702;23.314;2022-08-26T03:45:08;25.77;;;6.38;;
20910;SDS011;10615;42.702;23.314;2022-08-26T03:46:11;24.15;;;6.20;;
20910;SDS011;10615;42.702;23.314;2022-08-26T03:47:11;25.67;;;5.72;;
20910;SDS011;10615;42.702;23.314;2022-08-26T03:48:12;24.17;;;6.40;;
20910;SDS011;10615;42.702;23.314;2022-08-26T03:49:13;20.17;;;6.15;;
20910;SDS011;10615;42.702;23.314;2022-08-26T03:50:15;21.23;;;6.00;;
20910;SDS011;10615;42.702;23.314;2022-08-26T03:51:18;20.40;;;5.88;;
20910;SDS011;10615;42.702;23.314;2022-08-26T03:52:19;22.45;;;5.65;;
20910;SDS011;10615;42.702;23.314;2022-08-26T03:53:19;20.38;;;6.05;;
20910;SDS011;10615;42.702;23.314;2022-08-26T03:54:20;27.92;;;5.32;;
20910;SDS011;10615;42.702;23.314;2022-08-26T03:55:22;19.92;;;5.70;;
20910;SDS011;10615;42.702;23.314;2022-08-26T03:56:24;23.33;;;5.72;;
20910;SDS011;10615;42.702;23.314;2022-08-26T03:57:26;23.67;;;6.05;;
20910;SDS011;10615;42.702;23.314;2022-08-26T03:58:26;21.58;;;5.53;;
20910;SDS011;10615;42.702;23.314;2022-08-26T03:59:27;24.20;;;5.38;;
20910;SDS011;10615;42.702;23.314;2022-08-26T04:00:28;23.75;;;5.75;;
20910;SDS011;10615;42.702;23.314;2022-08-26T04:01:29;26.92;;;6.03;;
20910;SDS011;10615;42.702;23.314;2022-08-26T04:02:30;24.17;;;5.38;;
20910;SDS011;10615;42.702;23.314;2022-08-26T04:03:31;27.65;;;5.53;;
20910;SDS011;10615;42.702;23.314;2022-08-26T04:04:50;23.73;;;5.70;;
20910;SDS011;10615;42.702;23.314;2022-08-26T04:05:51;25.23;;;5.65;;
20910;SDS011;10615;42.702;23.314;2022-08-26T04:06:55;31.38;;;6.78;;
20910;SDS011;10615;42.702;23.314;2022-08-26T04:07:57;26.23;;;5.93;;
20910;SDS011;10615;42.702;23.314;2022-08-26T04:08:59;22.45;;;6.00;;
20910;SDS011;10615;42.702;23.314;2022-08-26T04:10:03;29.38;;;6.75;;
20910;SDS011;10615;42.702;23.314;2022-08-26T04:11:04;24.02;;;6.00;;
20910;SDS011;10615;42.702;23.314;2022-08-26T04:12:05;19.50;;;5.45;;
20910;SDS011;10615;42.702;23.314;2022-08-26T04:13:06;26.60;;;5.90;;
20910;SDS011;10615;42.702;23.314;2022-08-26T04:14:11;27.30;;;6.05;;
20910;SDS011;10615;42.702;23.314;2022-08-26T04:15:14;21.63;;;5.88;;
20910;SDS011;10615;42.702;23.314;2022-08-26T04:16:16;22.58;;;6.55;;
20910;SDS011;10615;42.702;23.314;2022-08-26T04:17:17;22.50;;;5.47;;
20910;SDS011;10615;42.702;23.314;2022-08-26T04:18:18;19.65;;;5.85;;
20910;SDS011;10615;42.702;23.314;2022-08-26T04:19:19;17.40;;;5.18;;
20910;SDS011;10615;42.702;23.314;2022-08-26T04:20:20;15.88;;;5.25;;
20910;SDS011;10615;42.702;23.314;2022-08-26T04:21:21;23.05;;;5.13;;
20910;SDS011;10615;42.702;23.314;2022-08-26T04:22:22;24.63;;;6.47;;
20910;SDS011;10615;42.702;23.314;2022-08-26T04:23:23;24.05;;;5.63;;
20910;SDS011;10615;42.702;23.314;2022-08-26T04:24:25;20.48;;;6.28;;
20910;SDS011;10615;42.702;23.314;2022-08-26T04:25:26;18.05;;;5.53;;
20910;SDS011;10615;42.702;23.314;2022-08-26T04:26:27;21.40;;;5.95;;
20910;SDS011;10615;42.702;23.314;2022-08-26T04:27:27;23.33;;;6.38;;
20910;SDS011;10615;42.702;23.314;2022-08-26T04:28:28;30.35;;;6.50;;
20910;SDS011;10615;42.702;23.314;2022-08-26T04:29:29;29.52;;;6.82;;
20910;SDS011;10615;42.702;23.314;2022-08-26T04:30:30;30.20;;;7.25;;
20910;SDS011;10615;42.702;23.314;2022-08-26T04:31:32;28.45;;;7.05;;
20910;SDS011;10615;42.702;23.314;2022-08-26T04:32:34;26.90;;;7.28;;
20910;SDS011;10615;42.702;23.314;2022-08-26T04:33:35;34.88;;;6.90;;
20910;SDS011;10615;42.702;23.314;2022-08-26T04:34:36;25.00;;;6.45;;
20910;SDS011;10615;42.702;23.314;2022-08-26T04:35:37;35.33;;;7.90;;
20910;SDS011;10615;42.702;23.314;2022-08-26T04:36:38;24.45;;;6.68;;
20910;SDS011;10615;42.702;23.314;2022-08-26T04:37:39;27.25;;;6.53;;
20910;SDS011;10615;42.702;23.314;2022-08-26T04:38:40;32.70;;;7.53;;
20910;SDS011;10615;42.702;23.314;2022-08-26T04:39:41;30.40;;;6.93;;
20910;SDS011;10615;42.702;23.314;2022-08-26T04:40:42;25.63;;;6.93;;
20910;SDS011;10615;42.702;23.314;2022-08-26T04:41:44;27.35;;;6.35;;
20910;SDS011;10615;42.702;23.314;2022-08-26T04:42:46;22.92;;;6.20;;
20910;SDS011;10615;42.702;23.314;2022-08-26T04:43:47;24.20;;;6.30;;
20910;SDS011;10615;42.702;23.314;2022-08-26T04:44:49;22.17;;;5.70;;
20910;SDS011;10615;42.702;23.314;2022-08-26T04:45:49;23.15;;;6.43;;
20910;SDS011;10615;42.702;23.314;2022-08-26T04:46:50;28.80;;;6.72;;
20910;SDS011;10615;42.702;23.314;2022-08-26T04:47:52;23.67;;;6.45;;
20910;SDS011;10615;42.702;23.314;2022-08-26T04:48:55;34.45;;;6.53;;
20910;SDS011;10615;42.702;23.314;2022-08-26T04:49:56;24.08;;;6.53;;
20910;SDS011;10615;42.702;23.314;2022-08-26T04:50:58;19.42;;;5.90;;
20910;SDS011;10615;42.702;23.314;2022-08-26T04:51:59;29.88;;;6.82;;
20910;SDS011;10615;42.702;23.314;2022-08-26T04:53:00;28.20;;;6.85;;
20910;SDS011;10615;42.702;23.314;2022-08-26T04:54:01;25.02;;;6.35;;
20910;SDS011;10615;42.702;23.314;2022-08-26T04:55:02;25.33;;;6.70;;
20910;SDS011;10615;42.702;23.314;2022-08-26T04:56:04;24.05;;;6.78;;
20910;SDS011;10615;42.702;23.314;2022-08-26T04:57:07;26.27;;;6.10;;
20910;SDS011;10615;42.702;23.314;2022-08-26T04:58:08;33.88;;;7.00;;
20910;SDS011;10615;42.702;23.314;2022-08-26T04:59:10;35.22;;;6.80;;
20910;SDS011;10615;42.702;23.314;2022-08-26T05:00:14;27.90;;;6.35;;
20910;SDS011;10615;42.702;23.314;2022-08-26T05:01:15;31.15;;;6.18;;
20910;SDS011;10615;42.702;23.314;2022-08-26T05:02:16;21.92;;;6.03;;
20910;SDS011;10615;42.702;23.314;2022-08-26T05:03:17;26.65;;;6.20;;
20910;SDS011;10615;42.702;23.314;2022-08-26T05:04:19;34.20;;;7.05;;
20910;SDS011;10615;42.702;23.314;2022-08-26T05:05:20;29.73;;;6.38;;
20910;SDS011;10615;42.702;23.314;2022-08-26T05:06:20;36.08;;;6.65;;
20910;SDS011;10615;42.702;23.314;2022-08-26T05:07:21;30.55;;;7.45;;
20910;SDS011;10615;42.702;23.314;2022-08-26T05:08:22;39.28;;;7.43;;
20910;SDS011;10615;42.702;23.314;2022-08-26T05:09:23;30.27;;;6.93;;
20910;SDS011;10615;42.702;23.314;2022-08-26T05:10:24;24.90;;;6.78;;
20910;SDS011;10615;42.702;23.314;2022-08-26T05:11:25;29.50;;;6.15;;
20910;SDS011;10615;42.702;23.314;2022-08-26T05:12:26;25.58;;;7.03;;
20910;SDS011;10615;42.702;23.314;2022-08-26T05:13:28;28.35;;;7.25;;
20910;SDS011;10615;42.702;23.314;2022-08-26T05:14:29;25.15;;;6.57;;
20910;SDS011;10615;42.702;23.314;2022-08-26T05:15:30;31.73;;;6.93;;
20910;SDS011;10615;42.702;23.314;2022-08-26T05:16:30;28.35;;;6.82;;
20910;SDS011;10615;42.702;23.314;2022-08-26T05:17:31;26.90;;;6.82;;
20910;SDS011;10615;42.702;23.314;2022-08-26T05:18:32;29.48;;;7.20;;
20910;SDS011;10615;42.702;23.314;2022-08-26T05:19:33;33.00;;;7.85;;
20910;SDS011;10615;42.702;23.314;2022-08-26T05:20:39;26.65;;;6.75;;
20910;SDS011;10615;42.702;23.314;2022-08-26T05:21:41;29.23;;;6.97;;
20910;SDS011;10615;42.702;23.314;2022-08-26T05:22:43;23.02;;;7.45;;
20910;SDS011;10615;42.702;23.314;2022-08-26T05:23:43;31.13;;;7.45;;
20910;SDS011;10615;42.702;23.314;2022-08-26T05:24:45;30.35;;;7.18;;
20910;SDS011;10615;42.702;23.314;2022-08-26T05:25:46;26.70;;;7.45;;
20910;SDS011;10615;42.702;23.314;2022-08-26T05:26:48;32.90;;;7.07;;
20910;SDS011;10615;42.702;23.314;2022-08-26T05:27:48;24.55;;;6.82;;
20910;SDS011;10615;42.702;23.314;2022-08-26T05:28:49;32.08;;;6.75;;
20910;SDS011;10615;42.702;23.314;2022-08-26T05:29:54;26.48;;;7.28;;
20910;SDS011;10615;42.702;23.314;2022-08-26T05:30:56;25.13;;;7.20;;
20910;SDS011;10615;42.702;23.314;2022-08-26T05:31:56;20.80;;;6.50;;
20910;SDS011;10615;42.702;23.314;2022-08-26T05:32:57;29.10;;;6.80;;
20910;SDS011;10615;42.702;23.314;2022-08-26T05:33:59;25.90;;;6.95;;
20910;SDS011;10615;42.702;23.314;2022-08-26T05:35:02;22.38;;;7.55;;
20910;SDS011;10615;42.702;23.314;2022-08-26T05:36:09;29.80;;;10.85;;
20910;SDS011;10615;42.702;23.314;2022-08-26T05:37:12;28.65;;;11.57;;
20910;SDS011;10615;42.702;23.314;2022-08-26T05:38:15;35.30;;;10.23;;
20910;SDS011;10615;42.702;23.314;2022-08-26T05:39:18;28.85;;;9.30;;
20910;SDS011;10615;42.702;23.314;2022-08-26T05:40:20;22.42;;;7.97;;
20910;SDS011;10615;42.702;23.314;2022-08-26T05:41:22;25.20;;;8.43;;
20910;SDS011;10615;42.702;23.314;2022-08-26T05:42:27;31.38;;;8.15;;
20910;SDS011;10615;42.702;23.314;2022-08-26T05:43:28;31.58;;;7.85;;
20910;SDS011;10615;42.702;23.314;2022-08-26T05:44:28;20.60;;;6.90;;
20910;SDS011;10615;42.702;23.314;2022-08-26T05:45:29;25.08;;;7.47;;
20910;SDS011;10615;42.702;23.314;2022-08-26T05:46:31;36.63;;;14.20;;
20910;SDS011;10615;42.702;23.314;2022-08-26T05:47:33;41.00;;;21.08;;
20910;SDS011;10615;42.702;23.314;2022-08-26T05:48:34;31.40;;;16.42;;
20910;SDS011;10615;42.702;23.314;2022-08-26T05:49:34;33.20;;;13.73;;
20910;SDS011;10615;42.702;23.314;2022-08-26T05:50:39;21.85;;;7.95;;
20910;SDS011;10615;42.702;23.314;2022-08-26T05:51:42;33.35;;;8.00;;
20910;SDS011;10615;42.702;23.314;2022-08-26T05:52:45;25.17;;;7.82;;
20910;SDS011;10615;42.702;23.314;2022-08-26T05:53:46;20.77;;;7.15;;
20910;SDS011;10615;42.702;23.314;2022-08-26T05:54:47;22.92;;;6.75;;
20910;SDS011;10615;42.702;23.314;2022-08-26T05:55:49;24.73;;;7.63;;
20910;SDS011;10615;42.702;23.314;2022-08-26T05:56:51;26.92;;;7.68;;
20910;SDS011;10615;42.702;23.314;2022-08-26T05:57:51;21.40;;;7.30;;
20910;SDS011;10615;42.702;23.314;2022-08-26T05:58:52;27.80;;;7.68;;
20910;SDS011;10615;42.702;23.314;2022-08-26T05:59:55;26.48;;;7.07;;
20910;SDS011;10615;42.702;23.314;2022-08-26T06:01:00;23.38;;;7.15;;
20910;SDS011;10615;42.702;23.314;2022-08-26T06:02:03;27.90;;;7.53;;
20910;SDS011;10615;42.702;23.314;2022-08-26T06:03:07;25.77;;;8.00;;
20910;SDS011;10615;42.702;23.314;2022-08-26T06:04:08;28.83;;;9.93;;
20910;SDS011;10615;42.702;23.314;2022-08-26T06:05:09;29.90;;;8.38;;
20910;SDS011;10615;42.702;23.314;2022-08-26T06:06:11;33.38;;;11.13;;
20910;SDS011;10615;42.702;23.314;2022-08-26T06:07:19;24.70;;;8.18;;